Time;durP1;ratioP1;P1;durP2;ratioP2;P2;SDS_P1;SDS_P2;PMS_P1;PMS_P2;Temp;Humidity;BMP_temperature;BMP_pressure;BME280_temperature;BME280_humidity;BME280_pressure;Samples;Min_cycle;Max_cycle;Signal;HPM_P1;HPM_P2
2022/08/08 00:01:51;;;;;;;0.77;0.77;;;21.00;70.70;;;;;;5016226;28;20029;-77
2022/08/08 00:04:45;;;;;;;0.90;0.80;;;21.00;70.70;;;;;;5017465;28;20053;-78
2022/08/08 00:07:39;;;;;;;1.00;0.90;;;21.00;70.60;;;;;;5010335;28;20026;-77
2022/08/08 00:10:32;;;;;;;1.03;1.03;;;21.00;70.70;;;;;;4997184;28;20092;-79
2022/08/08 00:13:04;;;;;;;0.77;0.77;;;21.00;70.60;;;;;;5014052;28;20277;-78
2022/08/08 00:15:45;;;;;;;0.85;0.85;;;21.00;70.60;;;;;;5007055;28;20084;-77
2022/08/08 00:18:21;;;;;;;0.70;0.70;;;21.00;70.60;;;;;;5019820;28;20049;-77
2022/08/08 00:20:53;;;;;;;0.80;0.80;;;21.00;70.60;;;;;;5007216;28;20033;-78
2022/08/08 00:23:49;;;;;;;0.70;0.70;;;21.00;70.60;;;;;;5012436;28;20037;-78
2022/08/08 00:26:28;;;;;;;1.20;1.20;;;21.00;70.60;;;;;;5019186;28;20580;-78
2022/08/08 00:29:10;;;;;;;0.90;0.90;;;21.00;70.70;;;;;;5012713;28;20045;-77
2022/08/08 00:31:40;;;;;;;0.70;0.70;;;21.00;70.60;;;;;;4998656;28;20126;-78
2022/08/08 00:37:26;;;;;;;0.82;0.82;;;21.00;70.60;;;;;;5016346;28;20090;-77
2022/08/08 00:40:12;;;;;;;0.88;0.88;;;21.00;70.60;;;;;;5020825;28;20029;-77
2022/08/08 00:42:52;;;;;;;1.20;1.10;;;21.00;70.50;;;;;;5022798;28;20640;-78
2022/08/08 00:45:50;;;;;;;0.93;0.93;;;21.00;70.50;;;;;;5010203;28;20341;-78
2022/08/08 00:48:39;;;;;;;0.80;0.80;;;21.00;70.50;;;;;;5009511;28;20096;-79
2022/08/08 00:51:11;;;;;;;1.17;1.08;;;20.90;70.40;;;;;;5012875;28;20041;-78
2022/08/08 00:54:18;;;;;;;0.82;0.82;;;21.00;70.70;;;;;;5005178;28;20045;-78
2022/08/08 00:57:21;;;;;;;2.00;1.02;;;21.00;70.60;;;;;;4992489;28;20049;-78
2022/08/08 01:00:13;;;;;;;0.82;0.82;;;20.90;70.60;;;;;;4986479;28;20030;-77
2022/08/08 01:03:00;;;;;;;0.70;0.70;;;20.90;70.50;;;;;;5010764;28;20391;-78
2022/08/08 01:06:03;;;;;;;0.45;0.45;;;20.90;70.50;;;;;;5013540;28;20032;-78
2022/08/08 01:08:32;;;;;;;0.73;0.73;;;20.90;70.50;;;;;;5012963;28;20080;-78
2022/08/08 01:11:22;;;;;;;1.02;0.95;;;20.90;70.60;;;;;;5015094;28;20108;-77
2022/08/08 01:14:01;;;;;;;1.13;0.75;;;20.90;70.50;;;;;;5020529;28;20037;-78
2022/08/08 01:16:39;;;;;;;0.80;0.80;;;20.90;70.50;;;;;;5019994;28;20026;-76
2022/08/08 01:19:40;;;;;;;0.88;0.88;;;20.90;70.50;;;;;;5012955;28;20049;-76
2022/08/08 01:22:27;;;;;;;0.88;0.88;;;20.90;70.60;;;;;;4935517;29;20045;-77
2022/08/08 01:25:23;;;;;;;0.93;0.93;;;20.90;70.50;;;;;;5009905;28;20049;-77
2022/08/08 01:28:27;;;;;;;0.90;0.90;;;20.90;70.60;;;;;;4998215;28;20045;-77
2022/08/08 01:31:20;;;;;;;1.05;0.95;;;20.90;70.60;;;;;;5012130;28;20033;-77
2022/08/08 01:34:18;;;;;;;2.47;0.80;;;20.90;70.50;;;;;;5010434;28;20034;-77
2022/08/08 01:36:59;;;;;;;0.85;0.85;;;20.90;70.60;;;;;;5003204;28;20068;-76
2022/08/08 01:39:44;;;;;;;0.75;0.75;;;20.90;70.50;;;;;;5012507;28;20037;-77
2022/08/08 01:42:16;;;;;;;0.95;0.95;;;20.80;70.50;;;;;;5015783;28;20128;-76
2022/08/08 01:45:18;;;;;;;0.98;0.68;;;20.90;70.50;;;;;;5005096;28;20057;-76
2022/08/08 01:47:58;;;;;;;0.65;0.65;;;20.90;70.50;;;;;;5009644;28;20117;-77
2022/08/08 01:50:58;;;;;;;0.90;0.90;;;20.90;70.60;;;;;;5009516;28;20064;-77
2022/08/08 01:53:50;;;;;;;1.00;0.90;;;20.90;70.40;;;;;;5008617;28;20377;-77
2022/08/08 01:56:27;;;;;;;0.95;0.95;;;20.90;70.40;;;;;;5009194;28;20304;-77
2022/08/08 01:58:53;;;;;;;0.73;0.73;;;20.90;70.50;;;;;;5012745;28;20030;-77
2022/08/08 02:01:44;;;;;;;0.80;0.80;;;20.90;70.40;;;;;;5000799;28;20437;-77
2022/08/08 02:04:23;;;;;;;0.70;0.70;;;20.90;70.40;;;;;;5010873;28;20030;-76
2022/08/08 02:07:12;;;;;;;0.75;0.75;;;20.90;71.10;;;;;;5008415;28;20558;-77
2022/08/08 02:09:37;;;;;;;0.77;0.77;;;20.80;70.40;;;;;;5007589;28;20030;-77
2022/08/08 02:12:13;;;;;;;1.00;0.90;;;20.90;70.40;;;;;;5010498;28;20018;-76
2022/08/08 02:14:47;;;;;;;0.80;0.80;;;20.80;70.40;;;;;;5025039;28;20370;-77
2022/08/08 02:17:23;;;;;;;0.63;0.63;;;20.80;70.40;;;;;;5009697;28;20030;-77
2022/08/08 02:19:55;;;;;;;0.70;0.70;;;20.80;70.40;;;;;;5011192;28;20030;-77
2022/08/08 02:22:32;;;;;;;0.70;0.70;;;20.80;70.40;;;;;;5014148;28;20034;-76
2022/08/08 02:25:19;;;;;;;0.80;0.80;;;20.80;70.40;;;;;;5007176;28;20109;-77
2022/08/08 02:28:06;;;;;;;0.82;0.82;;;20.80;70.40;;;;;;4993664;28;20077;-76
2022/08/08 02:30:44;;;;;;;0.93;0.93;;;20.80;70.40;;;;;;5013882;28;20033;-76
2022/08/08 02:33:16;;;;;;;1.30;0.80;;;20.80;70.40;;;;;;5025619;28;20025;-76
2022/08/08 02:36:26;;;;;;;0.70;0.70;;;20.80;70.40;;;;;;5027631;28;20514;-77
2022/08/08 02:39:25;;;;;;;0.60;0.60;;;20.80;70.40;;;;;;5000332;28;20046;-77
2022/08/08 02:41:54;;;;;;;0.90;0.90;;;20.80;70.40;;;;;;5010669;28;20061;-77
2022/08/08 02:44:41;;;;;;;0.73;0.73;;;20.80;70.40;;;;;;5011602;28;20025;-77
2022/08/08 02:47:30;;;;;;;1.27;0.70;;;20.80;70.40;;;;;;5009359;28;20083;-77
2022/08/08 02:50:21;;;;;;;0.60;0.60;;;20.80;70.40;;;;;;5014724;28;20022;-77
2022/08/08 02:52:47;;;;;;;1.00;0.93;;;20.80;70.40;;;;;;5028596;28;20052;-77
2022/08/08 02:55:50;;;;;;;0.60;0.60;;;20.80;70.40;;;;;;5021562;28;20480;-77
2022/08/08 02:58:45;;;;;;;1.00;0.90;;;20.80;70.40;;;;;;5013071;28;20056;-77
2022/08/08 03:01:55;;;;;;;0.90;0.90;;;20.70;70.20;;;;;;5011102;28;20053;-77
2022/08/08 03:04:59;;;;;;;0.88;0.88;;;20.80;70.30;;;;;;4972439;28;20030;-76
2022/08/08 03:08:03;;;;;;;1.27;0.70;;;20.70;70.20;;;;;;5018616;28;20084;-77
2022/08/08 03:11:06;;;;;;;1.10;1.00;;;20.70;70.40;;;;;;5012368;28;20029;-76
2022/08/08 03:14:08;;;;;;;0.85;0.70;;;20.70;70.30;;;;;;5018783;28;20083;-76
2022/08/08 03:17:06;;;;;;;1.00;1.00;;;20.70;70.40;;;;;;5021086;28;20496;-76
2022/08/08 03:19:45;;;;;;;1.10;1.00;;;20.70;70.30;;;;;;5008639;28;20432;-77
2022/08/08 03:22:10;;;;;;;1.30;0.95;;;20.70;70.40;;;;;;5012382;28;20101;-77
2022/08/08 03:24:36;;;;;;;1.23;1.13;;;20.70;70.40;;;;;;5015881;28;20078;-76
2022/08/08 03:27:11;;;;;;;1.77;0.90;;;20.70;70.40;;;;;;5013564;28;20099;-76
2022/08/08 03:29:41;;;;;;;1.25;0.93;;;20.70;70.40;;;;;;5014716;28;20026;-76
2022/08/08 03:34:55;;;;;;;1.42;0.90;;;20.70;70.50;;;;;;5010775;28;20114;-76
2022/08/08 03:37:21;;;;;;;1.35;0.77;;;20.70;70.60;;;;;;5022447;28;20041;-76
2022/08/08 03:39:48;;;;;;;1.27;1.17;;;20.70;70.60;;;;;;5011053;28;20038;-77
2022/08/08 03:42:15;;;;;;;0.70;0.70;;;20.70;70.50;;;;;;5013237;28;20037;-76
2022/08/08 03:44:41;;;;;;;1.23;0.73;;;20.70;70.60;;;;;;5021078;28;20483;-77
2022/08/08 03:47:07;;;;;;;0.93;0.93;;;20.70;70.50;;;;;;5011906;28;20034;-76
2022/08/08 03:49:33;;;;;;;0.80;0.80;;;20.60;70.40;;;;;;5009219;28;20025;-77
2022/08/08 03:51:58;;;;;;;1.42;1.30;;;20.70;70.50;;;;;;5013831;28;20026;-76
2022/08/08 03:54:25;;;;;;;1.13;0.90;;;20.70;70.60;;;;;;5017932;28;20045;-77
2022/08/08 03:56:51;;;;;;;0.88;0.88;;;20.60;70.50;;;;;;5011950;28;20026;-77
2022/08/08 03:59:17;;;;;;;0.73;0.70;;;20.70;70.60;;;;;;5015767;28;20022;-76
2022/08/08 04:01:43;;;;;;;0.80;0.80;;;20.70;70.50;;;;;;5006848;28;20042;-77
2022/08/08 04:04:10;;;;;;;0.70;0.70;;;20.60;70.30;;;;;;5019745;28;20033;-76
2022/08/08 04:06:37;;;;;;;0.93;0.90;;;20.60;70.40;;;;;;5010422;28;20037;-77
2022/08/08 04:09:06;;;;;;;1.05;0.80;;;20.60;70.50;;;;;;5013815;28;20129;-77
2022/08/08 04:11:32;;;;;;;0.80;0.80;;;20.60;70.40;;;;;;5014694;28;20029;-77
2022/08/08 04:13:58;;;;;;;0.60;0.60;;;20.60;70.50;;;;;;5013274;28;20032;-77
2022/08/08 04:16:25;;;;;;;1.10;1.00;;;20.60;70.50;;;;;;5014549;28;20030;-76
2022/08/08 04:18:51;;;;;;;0.88;0.88;;;20.60;70.40;;;;;;5011007;28;20029;-75
2022/08/08 04:21:16;;;;;;;1.08;0.80;;;20.60;70.50;;;;;;5010349;28;20017;-76
2022/08/08 04:23:42;;;;;;;0.75;0.75;;;20.60;70.40;;;;;;5016417;28;20029;-77
2022/08/08 04:26:09;;;;;;;0.80;0.80;;;20.60;70.50;;;;;;5009050;28;20489;-77
2022/08/08 04:28:35;;;;;;;0.90;0.90;;;20.60;70.40;;;;;;5010998;28;20033;-76
2022/08/08 04:31:01;;;;;;;1.27;1.17;;;20.60;70.40;;;;;;5005002;28;20018;-77
2022/08/08 04:33:27;;;;;;;0.93;0.90;;;20.60;70.50;;;;;;5013817;28;20502;-76
2022/08/08 04:35:53;;;;;;;0.70;0.70;;;20.50;70.30;;;;;;5012249;28;20030;-76
2022/08/08 04:38:19;;;;;;;1.10;1.00;;;20.60;70.40;;;;;;5008801;28;20061;-77
2022/08/08 04:40:45;;;;;;;0.73;0.73;;;20.60;70.50;;;;;;5016251;28;20388;-77
2022/08/08 04:43:11;;;;;;;0.80;0.80;;;20.50;70.50;;;;;;5010867;28;20208;-77
2022/08/08 04:45:37;;;;;;;0.90;0.90;;;20.50;70.40;;;;;;5011772;28;20500;-77
2022/08/08 04:48:03;;;;;;;1.33;1.23;;;20.60;70.50;;;;;;5011231;28;20025;-76
2022/08/08 04:50:29;;;;;;;0.88;0.73;;;20.60;70.50;;;;;;5012566;28;20030;-77
2022/08/08 04:52:55;;;;;;;0.88;0.88;;;20.50;70.50;;;;;;5012357;28;20014;-76
2022/08/08 04:55:21;;;;;;;1.17;1.00;;;20.50;70.50;;;;;;5012953;28;20369;-76
2022/08/08 04:57:47;;;;;;;0.73;0.73;;;20.50;70.50;;;;;;5010869;28;20037;-76
2022/08/08 05:00:13;;;;;;;0.65;0.65;;;20.50;70.50;;;;;;5011849;28;20025;-77
2022/08/08 05:02:39;;;;;;;0.80;0.80;;;20.50;70.50;;;;;;5014663;28;20021;-77
2022/08/08 05:05:05;;;;;;;0.70;0.70;;;20.50;70.40;;;;;;5009896;28;20075;-77
2022/08/08 05:07:31;;;;;;;1.10;1.02;;;20.50;70.50;;;;;;5012280;28;20026;-77
2022/08/08 05:09:57;;;;;;;1.30;1.20;;;20.50;70.50;;;;;;5011296;28;20032;-76
2022/08/08 05:12:22;;;;;;;0.80;0.73;;;20.50;70.40;;;;;;5004146;28;20017;-77
2022/08/08 05:14:48;;;;;;;0.73;0.73;;;20.50;70.50;;;;;;5007162;28;20113;-77
2022/08/08 05:17:14;;;;;;;1.05;0.95;;;20.50;70.50;;;;;;5014535;28;20024;-77
2022/08/08 05:19:40;;;;;;;1.33;1.23;;;20.50;70.40;;;;;;5007579;28;20036;-76
2022/08/08 05:22:07;;;;;;;1.50;1.05;;;20.50;70.40;;;;;;5010086;28;20033;-76
2022/08/08 05:24:34;;;;;;;0.80;0.80;;;20.50;70.40;;;;;;5009980;28;20075;-77
2022/08/08 05:27:00;;;;;;;0.88;0.88;;;20.50;70.40;;;;;;5007849;28;20088;-76
2022/08/08 05:29:26;;;;;;;0.82;0.82;;;20.50;70.40;;;;;;5006384;28;20027;-76
2022/08/08 05:31:52;;;;;;;1.10;1.00;;;20.50;70.40;;;;;;5010824;28;20029;-76
2022/08/08 05:34:48;;;;;;;0.57;0.57;;;20.50;70.30;;;;;;5008928;28;20021;-76
2022/08/08 05:37:18;;;;;;;1.55;1.05;;;20.50;70.20;;;;;;5005560;28;20504;-76
2022/08/08 05:39:55;;;;;;;1.20;0.90;;;20.50;70.30;;;;;;5007809;28;20036;-76
2022/08/08 05:42:38;;;;;;;0.95;0.95;;;20.50;70.20;;;;;;5013724;28;20092;-76
2022/08/08 05:45:05;;;;;;;0.88;0.80;;;20.50;70.10;;;;;;5022852;28;20370;-76
2022/08/08 05:47:32;;;;;;;0.60;0.60;;;20.50;70.10;;;;;;5003454;28;20035;-76
2022/08/08 05:49:58;;;;;;;0.93;0.85;;;20.50;70.20;;;;;;5008842;28;20579;-77
2022/08/08 05:52:23;;;;;;;0.77;0.75;;;20.50;70.10;;;;;;5010060;28;20057;-76
2022/08/08 05:54:49;;;;;;;0.60;0.60;;;20.50;70.00;;;;;;5003324;28;20409;-76
2022/08/08 05:57:16;;;;;;;0.80;0.80;;;20.50;70.00;;;;;;5003971;28;20099;-76
2022/08/08 05:59:48;;;;;;;0.80;0.80;;;20.50;69.90;;;;;;5005091;28;20080;-76
2022/08/08 06:05:09;;;;;;;1.00;0.88;;;20.60;69.90;;;;;;4999837;28;20537;-76
2022/08/08 06:07:40;;;;;;;0.82;0.77;;;20.50;69.90;;;;;;5007421;28;20034;-77
2022/08/08 06:10:08;;;;;;;0.98;0.80;;;20.60;69.90;;;;;;5007686;28;20546;-76
2022/08/08 06:12:35;;;;;;;0.80;0.80;;;20.60;69.90;;;;;;5006511;28;20288;-77
2022/08/08 06:15:03;;;;;;;0.80;0.80;;;20.50;69.80;;;;;;5002893;28;20118;-76
2022/08/08 06:17:37;;;;;;;0.98;0.98;;;20.60;69.90;;;;;;5007877;28;20435;-76
2022/08/08 06:20:05;;;;;;;1.25;1.00;;;20.60;69.90;;;;;;5007033;28;20558;-76
2022/08/08 06:22:31;;;;;;;0.70;0.70;;;20.60;69.90;;;;;;5006875;28;20385;-76
2022/08/08 06:24:57;;;;;;;0.80;0.80;;;20.60;69.80;;;;;;5007855;28;20037;-75
2022/08/08 06:27:58;;;;;;;0.70;0.70;;;20.60;69.80;;;;;;5008288;28;20437;-76
2022/08/08 06:30:24;;;;;;;1.00;0.90;;;20.60;69.80;;;;;;5008754;28;20472;-75
2022/08/08 06:32:59;;;;;;;1.25;1.00;;;20.60;69.80;;;;;;5009267;28;20504;-76
2022/08/08 06:35:25;;;;;;;0.80;0.80;;;20.60;69.70;;;;;;5009705;28;20018;-75
2022/08/08 06:38:00;;;;;;;0.80;0.80;;;20.60;69.70;;;;;;5008090;28;20493;-76
2022/08/08 06:40:30;;;;;;;0.68;0.68;;;20.60;69.70;;;;;;5008014;28;20080;-76
2022/08/08 06:43:03;;;;;;;1.00;0.90;;;20.60;69.70;;;;;;5004294;28;20030;-76
2022/08/08 06:45:32;;;;;;;;;;;20.60;69.70;;;;;;5012667;28;20061;-76
2022/08/08 06:47:59;;;;;;;2.03;1.15;;;20.60;69.70;;;;;;5009724;28;19914;-76
2022/08/08 06:50:26;;;;;;;0.80;0.80;;;20.70;69.70;;;;;;5007356;28;20103;-76
2022/08/08 06:52:52;;;;;;;0.70;0.70;;;20.60;69.60;;;;;;5011701;28;20574;-76
2022/08/08 06:55:20;;;;;;;0.98;0.80;;;20.60;69.50;;;;;;5015821;28;20030;-76
2022/08/08 06:57:46;;;;;;;0.80;0.80;;;20.70;69.60;;;;;;5013833;28;20032;-76
2022/08/08 07:00:13;;;;;;;4.45;1.35;;;20.70;69.70;;;;;;5011243;28;20034;-79
2022/08/08 07:02:43;;;;;;;5.82;1.85;;;20.50;77.50;;;;;;5024541;28;20026;-79
2022/08/08 07:05:14;;;;;;;13.45;2.28;;;20.40;80.40;;;;;;5016917;28;20022;-81
2022/08/08 07:07:52;;;;;;;6.25;1.52;;;20.40;81.90;;;;;;5026370;28;20045;-79
2022/08/08 07:10:23;;;;;;;9.90;1.90;;;20.40;82.50;;;;;;5027463;28;20056;-79
2022/08/08 07:12:53;;;;;;;6.18;1.92;;;20.20;83.40;;;;;;5024722;28;20037;-80
2022/08/08 07:15:58;;;;;;;2.10;1.50;;;20.10;83.60;;;;;;5011364;28;20057;-78
2022/08/08 07:18:35;;;;;;;2.50;1.73;;;19.70;84.10;;;;;;5010837;28;20388;-79
2022/08/08 07:21:07;;;;;;;2.03;1.70;;;19.60;85.40;;;;;;5007601;28;20034;-80
2022/08/08 07:24:12;;;;;;;5.30;1.80;;;19.60;85.30;;;;;;5012824;28;20025;-80
2022/08/08 07:26:39;;;;;;;5.28;2.00;;;19.60;85.90;;;;;;5001890;28;20042;-80
2022/08/08 07:29:05;;;;;;;2.95;1.42;;;19.60;85.70;;;;;;5009641;28;20449;-80
2022/08/08 07:31:32;;;;;;;9.57;1.98;;;19.70;85.30;;;;;;5012226;28;20029;-79
2022/08/08 07:33:58;;;;;;;3.78;1.83;;;19.70;85.40;;;;;;5012007;28;20112;-79
2022/08/08 07:36:26;;;;;;;2.83;1.20;;;19.80;85.30;;;;;;5011617;28;20492;-80
2022/08/08 07:38:52;;;;;;;3.70;1.70;;;19.80;86.00;;;;;;5010410;28;20058;-80
2022/08/08 07:41:18;;;;;;;4.22;1.70;;;19.80;85.80;;;;;;5019653;28;20032;-80
2022/08/08 07:43:44;;;;;;;4.03;1.55;;;20.00;86.30;;;;;;5012578;28;20037;-79
2022/08/08 07:46:13;;;;;;;5.97;2.10;;;20.10;86.00;;;;;;5018309;28;20033;-79
2022/08/08 07:48:39;;;;;;;2.95;1.35;;;20.20;84.70;;;;;;5011496;28;20507;-79
2022/08/08 07:51:05;;;;;;;4.45;1.80;;;20.30;85.70;;;;;;5006975;28;20021;-80
2022/08/08 07:53:43;;;;;;;3.95;1.90;;;20.40;85.10;;;;;;5014527;28;20508;-79
2022/08/08 07:56:15;;;;;;;4.65;1.60;;;20.50;85.20;;;;;;5011097;28;20045;-80
2022/08/08 07:58:43;;;;;;;4.80;1.90;;;20.60;84.60;;;;;;5013794;28;20029;-82
2022/08/08 08:01:16;;;;;;;3.00;1.75;;;20.70;84.50;;;;;;5016627;28;20034;-84
2022/08/08 08:03:58;;;;;;;3.40;1.60;;;20.70;84.50;;;;;;5011754;28;20107;-81
2022/08/08 08:06:25;;;;;;;8.63;1.77;;;20.80;84.60;;;;;;5017471;28;20030;-82
2022/08/08 08:09:17;;;;;;;3.80;1.88;;;20.80;84.30;;;;;;5018856;28;20116;-81
2022/08/08 08:11:49;;;;;;;2.25;1.95;;;20.90;84.20;;;;;;5014570;28;20041;-83
2022/08/08 08:14:27;;;;;;;4.15;1.90;;;20.90;83.50;;;;;;5026306;28;20022;-83
2022/08/08 08:16:55;;;;;;;4.18;1.80;;;20.90;84.00;;;;;;5019328;28;20168;-81
2022/08/08 08:19:26;;;;;;;4.68;2.78;;;21.00;82.90;;;;;;5021664;28;20041;-82
2022/08/08 08:21:52;;;;;;;4.40;2.30;;;20.90;83.10;;;;;;5031983;28;20060;-84
2022/08/08 08:24:17;;;;;;;6.18;1.98;;;21.10;82.80;;;;;;5020388;28;20034;-83
2022/08/08 08:26:43;;;;;;;5.78;2.35;;;21.20;82.50;;;;;;5035023;28;20033;-82
2022/08/08 08:29:09;;;;;;;6.80;2.03;;;21.30;82.10;;;;;;5018087;28;20026;-81
2022/08/08 08:31:35;;;;;;;4.82;2.28;;;21.30;80.70;;;;;;5018391;28;20037;-81
2022/08/08 08:34:01;;;;;;;4.00;2.35;;;21.40;81.70;;;;;;5019579;28;20033;-81
2022/08/08 08:36:27;;;;;;;3.40;2.13;;;21.60;81.80;;;;;;5025898;28;20022;-81
2022/08/08 08:38:53;;;;;;;3.05;1.80;;;21.70;80.70;;;;;;5020218;28;20036;-83
2022/08/08 08:41:19;;;;;;;3.20;1.98;;;21.80;81.40;;;;;;5013277;28;20444;-82
2022/08/08 08:43:48;;;;;;;6.95;2.28;;;21.80;80.40;;;;;;5015382;28;20029;-82
2022/08/08 08:46:14;;;;;;;5.80;2.13;;;21.90;79.20;;;;;;5017882;28;20065;-81
2022/08/08 08:48:43;;;;;;;6.75;1.75;;;21.90;79.20;;;;;;5022434;28;20033;-82
2022/08/08 08:51:14;;;;;;;4.53;1.65;;;21.90;78.20;;;;;;5016267;28;20022;-82
2022/08/08 08:53:52;;;;;;;2.42;1.60;;;22.10;79.00;;;;;;5017559;28;20033;-80
2022/08/08 08:56:19;;;;;;;2.90;1.98;;;22.10;79.10;;;;;;5018734;28;20030;-82
2022/08/08 08:58:50;;;;;;;5.15;2.03;;;22.20;78.10;;;;;;5009509;28;20022;-83
2022/08/08 09:01:19;;;;;;;3.97;2.20;;;22.20;78.10;;;;;;5015824;28;20029;-82
2022/08/08 09:03:47;;;;;;;6.20;2.47;;;22.20;78.10;;;;;;5010153;28;20025;-81
2022/08/08 09:06:24;;;;;;;8.13;2.10;;;22.20;78.10;;;;;;5009920;28;20116;-80
2022/08/08 09:08:58;;;;;;;2.67;1.80;;;22.20;78.20;;;;;;5015311;28;20033;-81
2022/08/08 09:11:25;;;;;;;4.57;2.20;;;22.10;77.60;;;;;;5008474;28;20296;-82
2022/08/08 09:13:52;;;;;;;4.60;2.03;;;22.20;77.50;;;;;;5014783;28;20025;-81
2022/08/08 09:16:18;;;;;;;3.92;2.17;;;22.30;78.20;;;;;;5012968;28;20026;-81
2022/08/08 09:18:45;;;;;;;4.13;1.90;;;22.30;77.60;;;;;;5013278;28;20034;-80
2022/08/08 09:21:12;;;;;;;2.28;1.85;;;22.30;77.00;;;;;;5020510;28;20028;-81
2022/08/08 09:23:37;;;;;;;4.13;2.22;;;22.30;77.70;;;;;;5015546;28;20120;-80
2022/08/08 09:26:31;;;;;;;4.55;1.98;;;22.40;77.40;;;;;;5021343;28;20491;-80
2022/08/08 09:28:59;;;;;;;2.88;1.98;;;22.50;76.10;;;;;;5012562;28;20100;-81
2022/08/08 09:31:50;;;;;;;6.57;2.13;;;22.60;76.60;;;;;;5016932;28;20026;-81
2022/08/08 09:34:18;;;;;;;4.70;2.13;;;22.70;75.60;;;;;;5013551;28;20045;-80
2022/08/08 09:36:46;;;;;;;3.63;2.13;;;22.70;75.60;;;;;;5015185;28;20060;-82
2022/08/08 09:39:17;;;;;;;4.07;2.35;;;22.90;75.70;;;;;;5013137;28;20113;-81
2022/08/08 09:41:43;;;;;;;9.70;1.73;;;22.90;76.10;;;;;;5015500;28;20034;-82
2022/08/08 09:44:27;;;;;;;3.58;2.00;;;23.20;75.30;;;;;;5014326;28;20053;-81
2022/08/08 09:46:56;;;;;;;5.60;2.03;;;23.30;75.10;;;;;;5014181;28;20049;-79
2022/08/08 09:49:22;;;;;;;4.32;1.80;;;23.30;73.70;;;;;;5014263;28;20026;-79
2022/08/08 09:51:53;;;;;;;3.17;1.40;;;23.30;72.80;;;;;;5016376;28;20026;-81
2022/08/08 09:54:24;;;;;;;1.40;1.10;;;23.30;70.70;;;;;;5011457;28;20164;-80
2022/08/08 09:56:54;;;;;;;4.07;1.23;;;23.10;69.50;;;;;;5014038;28;20037;-80
2022/08/08 09:59:30;;;;;;;2.25;1.60;;;23.00;70.00;;;;;;5009054;28;20033;-80
2022/08/08 10:01:58;;;;;;;6.78;1.92;;;23.20;71.60;;;;;;5009872;28;20030;-78
2022/08/08 10:04:26;;;;;;;2.78;1.60;;;23.10;72.10;;;;;;5012716;28;20092;-81
2022/08/08 10:06:52;;;;;;;2.03;1.75;;;23.10;72.00;;;;;;5025106;28;20057;-80
2022/08/08 10:09:32;;;;;;;4.90;1.90;;;23.20;70.80;;;;;;5016449;28;20048;-79
2022/08/08 10:12:02;;;;;;;5.70;1.80;;;23.20;71.30;;;;;;5016384;28;20030;-80
2022/08/08 10:14:35;;;;;;;22.13;3.47;;;23.40;72.10;;;;;;5015660;28;20558;-80
2022/08/08 10:17:09;;;;;;;4.47;2.47;;;23.50;71.80;;;;;;5014337;28;20045;-81
2022/08/08 10:19:39;;;;;;;;;;;23.60;72.00;;;;;;5021166;28;20041;-80
2022/08/08 10:22:06;;;;;;;2.58;1.52;;;23.70;69.40;;;;;;5014491;28;19937;-80
2022/08/08 10:24:33;;;;;;;6.45;1.80;;;23.80;70.60;;;;;;5017985;28;20120;-80
2022/08/08 10:27:02;;;;;;;3.40;1.75;;;23.80;70.90;;;;;;5017270;28;20068;-79
2022/08/08 10:29:33;;;;;;;1.58;1.20;;;23.90;70.50;;;;;;5008736;28;20038;-82
2022/08/08 10:34:51;;;;;;;3.00;1.10;;;23.80;68.80;;;;;;5016671;28;20531;-83
2022/08/08 10:37:26;;;;;;;2.20;1.45;;;23.80;68.10;;;;;;5014107;28;20231;-82
2022/08/08 10:39:54;;;;;;;1.17;1.08;;;23.70;67.70;;;;;;5027726;28;20030;-84
2022/08/08 10:42:22;;;;;;;1.83;1.17;;;23.60;67.80;;;;;;5004787;28;20022;-84
2022/08/08 10:44:48;;;;;;;3.47;1.45;;;23.60;67.40;;;;;;5011928;28;20036;-79
2022/08/08 10:47:19;;;;;;;2.03;1.13;;;23.60;67.60;;;;;;5017456;28;20097;-81
2022/08/08 10:49:53;;;;;;;2.47;1.30;;;23.60;66.80;;;;;;5022354;28;20022;-82
2022/08/08 10:52:36;;;;;;;2.45;1.17;;;23.60;67.90;;;;;;5015249;28;20113;-82
2022/08/08 10:55:09;;;;;;;2.13;1.20;;;23.60;67.30;;;;;;5011026;28;20496;-83
2022/08/08 10:57:39;;;;;;;5.97;1.40;;;23.60;68.20;;;;;;5018876;28;20566;-83
2022/08/08 11:00:08;;;;;;;4.07;1.33;;;23.70;68.20;;;;;;5017220;28;20038;-82
2022/08/08 11:02:34;;;;;;;5.03;1.10;;;23.70;67.60;;;;;;5020105;28;20317;-81
2022/08/08 11:05:07;;;;;;;6.68;1.77;;;23.80;67.60;;;;;;5022050;28;20030;-83
2022/08/08 11:07:50;;;;;;;2.65;1.08;;;23.80;68.20;;;;;;5019448;28;20037;-84
2022/08/08 11:10:18;;;;;;;1.55;1.20;;;23.80;67.40;;;;;;5017196;28;20030;-84
2022/08/08 11:12:47;;;;;;;3.55;1.52;;;23.80;67.40;;;;;;5023909;28;20029;-82
2022/08/08 11:15:15;;;;;;;6.43;1.40;;;23.80;67.40;;;;;;5018859;28;20503;-84
2022/08/08 11:17:43;;;;;;;3.25;1.25;;;23.90;66.20;;;;;;5022774;28;20029;-84
2022/08/08 11:20:11;;;;;;;5.90;1.70;;;23.80;66.60;;;;;;5024556;28;20032;-82
2022/08/08 11:22:38;;;;;;;3.65;1.00;;;23.90;66.80;;;;;;5043078;28;20111;-85
2022/08/08 11:25:10;;;;;;;1.70;1.20;;;24.00;66.50;;;;;;5035483;28;20033;-79
2022/08/08 11:27:36;;;;;;;5.05;1.65;;;24.10;66.80;;;;;;5027459;28;20484;-80
2022/08/08 11:30:06;;;;;;;2.42;1.30;;;24.20;66.10;;;;;;5033915;28;20030;-84
2022/08/08 11:32:39;;;;;;;1.25;1.10;;;24.20;66.20;;;;;;5032086;28;20036;-83
2022/08/08 11:35:14;;;;;;;1.58;1.30;;;24.20;66.20;;;;;;5022122;28;20492;-83
2022/08/08 11:37:42;;;;;;;1.58;1.00;;;24.20;65.40;;;;;;5019175;28;20045;-83
2022/08/08 11:40:10;;;;;;;3.40;1.33;;;24.20;65.50;;;;;;5017421;28;20488;-86
2022/08/08 11:42:37;;;;;;;1.35;1.02;;;24.20;65.60;;;;;;5015655;28;20069;-82
2022/08/08 11:45:05;;;;;;;4.28;1.15;;;24.20;65.30;;;;;;5009607;28;20031;-81
2022/08/08 11:47:32;;;;;;;7.03;1.48;;;24.10;65.80;;;;;;5014124;28;20451;-81
2022/08/08 11:50:11;;;;;;;2.95;1.20;;;24.30;66.80;;;;;;5012710;28;20454;-83
2022/08/08 11:52:38;;;;;;;2.75;1.10;;;24.30;66.10;;;;;;5018307;28;20045;-81
2022/08/08 11:55:27;;;;;;;3.60;0.90;;;24.30;64.90;;;;;;5016762;28;20033;-79
2022/08/08 11:58:07;;;;;;;2.30;1.35;;;24.40;65.60;;;;;;5018366;28;20464;-81
2022/08/08 12:00:41;;;;;;;1.58;1.02;;;24.40;65.70;;;;;;5020244;28;20068;-82
2022/08/08 12:03:24;;;;;;;1.60;1.20;;;24.50;67.00;;;;;;5007502;28;20033;-84
2022/08/08 12:05:51;;;;;;;5.53;1.30;;;24.40;64.40;;;;;;5009305;28;20041;-81
2022/08/08 12:08:30;;;;;;;5.13;1.27;;;24.50;64.60;;;;;;5016259;28;20042;-83
2022/08/08 12:11:00;;;;;;;1.70;1.35;;;24.40;64.10;;;;;;5015131;28;20132;-82
2022/08/08 12:13:26;;;;;;;2.25;1.02;;;24.40;64.00;;;;;;5018536;28;20030;-84
2022/08/08 12:15:52;;;;;;;5.35;2.13;;;24.40;64.70;;;;;;5020691;28;20034;-80
2022/08/08 12:18:18;;;;;;;2.97;1.30;;;24.50;64.30;;;;;;5018398;28;20372;-82
2022/08/08 12:20:44;;;;;;;4.43;1.88;;;24.60;64.80;;;;;;5018457;28;20480;-84
2022/08/08 12:23:10;;;;;;;6.82;1.45;;;24.60;65.20;;;;;;5017822;28;20496;-84
2022/08/08 12:25:36;;;;;;;2.22;1.20;;;24.60;64.80;;;;;;5011965;28;20396;-81
2022/08/08 12:28:13;;;;;;;3.30;1.35;;;24.60;64.40;;;;;;5023239;28;20506;-82
2022/08/08 12:30:41;;;;;;;3.67;1.20;;;24.60;63.40;;;;;;5019275;28;20133;-84
2022/08/08 12:33:24;;;;;;;3.35;1.33;;;24.70;64.30;;;;;;5019135;28;20022;-85
2022/08/08 12:35:50;;;;;;;1.48;1.20;;;24.70;64.30;;;;;;5017281;28;20026;-82
2022/08/08 12:38:16;;;;;;;3.30;1.00;;;24.80;64.20;;;;;;5023729;28;20077;-81
2022/08/08 12:40:48;;;;;;;3.08;1.02;;;24.70;63.30;;;;;;5024617;28;20128;-83
2022/08/08 12:43:15;;;;;;;1.52;0.90;;;24.70;63.40;;;;;;5014247;28;20025;-80
2022/08/08 12:45:45;;;;;;;2.72;0.90;;;24.80;63.40;;;;;;5021730;28;20496;-84
2022/08/08 12:48:21;;;;;;;3.88;1.40;;;24.80;63.10;;;;;;5015187;28;20156;-84
2022/08/08 12:50:53;;;;;;;8.50;1.60;;;24.80;63.30;;;;;;5019680;28;20022;-83
2022/08/08 12:53:22;;;;;;;2.85;1.60;;;24.80;64.30;;;;;;5014270;28;20164;-84
2022/08/08 12:56:01;;;;;;;3.47;1.90;;;24.80;64.50;;;;;;5026602;28;20030;-85
2022/08/08 12:58:41;;;;;;;4.28;1.27;;;24.80;64.40;;;;;;5023802;28;20030;-81
2022/08/08 13:01:11;;;;;;;3.92;1.60;;;24.90;64.30;;;;;;5024267;28;20033;-80
2022/08/08 13:03:47;;;;;;;9.98;1.58;;;24.90;64.00;;;;;;5020798;28;20037;-85
2022/08/08 13:06:16;;;;;;;5.45;1.63;;;24.90;64.50;;;;;;5021695;28;20393;-84
2022/08/08 13:08:50;;;;;;;3.15;1.45;;;24.90;64.90;;;;;;5014789;28;20034;-82
2022/08/08 13:11:40;;;;;;;4.65;1.70;;;24.90;64.10;;;;;;5014525;28;20034;-78
2022/08/08 13:14:14;;;;;;;2.78;2.28;;;24.90;64.90;;;;;;5015994;28;20026;-77
2022/08/08 13:16:41;;;;;;;2.83;1.90;;;24.80;65.30;;;;;;5016303;28;20041;-77
2022/08/08 13:19:09;;;;;;;2.30;2.10;;;24.50;65.90;;;;;;5007866;28;20029;-77
2022/08/08 13:21:41;;;;;;;2.10;1.80;;;24.20;66.60;;;;;;5016183;28;20049;-77
2022/08/08 13:24:07;;;;;;;4.53;2.60;;;23.90;67.10;;;;;;5012268;28;20492;-77
2022/08/08 13:26:33;;;;;;;3.08;1.92;;;23.70;67.70;;;;;;5009896;28;20030;-77
2022/08/08 13:29:11;;;;;;;4.30;2.78;;;23.50;68.00;;;;;;5009286;28;20064;-76
2022/08/08 13:31:50;;;;;;;2.80;2.17;;;23.40;68.60;;;;;;5018566;28;20087;-77
2022/08/08 13:34:24;;;;;;;3.15;2.15;;;23.30;69.00;;;;;;5010020;28;20025;-77